createdAt,value
2022-10-20T00:01:42.499Z,14.80
2022-10-20T00:04:12.781Z,14.70
2022-10-20T00:06:43.109Z,14.70
2022-10-20T00:09:15.966Z,14.70
2022-10-20T00:11:46.354Z,14.70
2022-10-20T00:14:16.734Z,14.60
2022-10-20T00:16:47.042Z,14.60
2022-10-20T00:19:17.291Z,14.70
2022-10-20T00:21:47.542Z,14.60
2022-10-20T00:24:21.721Z,14.60
2022-10-20T00:26:51.956Z,14.60
2022-10-20T00:29:22.133Z,14.60
2022-10-20T00:31:52.334Z,14.50
2022-10-20T00:34:22.629Z,14.50
2022-10-20T00:36:52.855Z,14.50
2022-10-20T00:39:25.617Z,14.50
2022-10-20T00:41:55.885Z,14.60
2022-10-20T00:44:51.151Z,14.60
2022-10-20T00:47:24.467Z,14.50
2022-10-20T00:49:55.351Z,14.50
2022-10-20T00:52:26.000Z,14.50
2022-10-20T00:54:58.804Z,14.50
2022-10-20T00:57:29.496Z,14.60
2022-10-20T00:59:59.703Z,14.50
2022-10-20T01:02:30.155Z,14.50
2022-10-20T01:07:46.972Z,14.50
2022-10-20T01:10:20.896Z,14.50
2022-10-20T01:13:02.115Z,14.50
2022-10-20T01:15:41.669Z,14.50
2022-10-20T01:18:17.374Z,14.50
2022-10-20T01:21:08.388Z,14.50
2022-10-20T01:24:14.354Z,14.40
2022-10-20T01:27:18.041Z,14.50
2022-10-20T01:29:53.504Z,14.50
2022-10-20T01:32:28.997Z,14.40
2022-10-20T01:35:07.077Z,14.40
2022-10-20T01:37:51.550Z,14.40
2022-10-20T01:40:29.733Z,14.40
2022-10-20T01:43:06.193Z,14.40
2022-10-20T01:45:39.834Z,14.30
2022-10-20T01:48:12.924Z,14.40
2022-10-20T01:50:44.757Z,14.40
2022-10-20T01:53:16.023Z,14.40
2022-10-20T01:55:46.739Z,14.40
2022-10-20T01:58:50.171Z,14.40
2022-10-20T02:01:37.196Z,14.40
2022-10-20T02:04:10.293Z,14.40
2022-10-20T02:06:51.116Z,14.40
2022-10-20T02:09:27.473Z,14.40
2022-10-20T02:12:06.230Z,14.40
2022-10-20T02:14:40.583Z,14.40
2022-10-20T02:17:14.378Z,14.40
2022-10-20T02:19:46.448Z,14.40
2022-10-20T02:22:18.344Z,14.40
2022-10-20T02:24:50.227Z,14.40
2022-10-20T02:27:26.846Z,14.30
2022-10-20T02:30:03.574Z,14.30
2022-10-20T02:32:36.107Z,14.30
2022-10-20T02:35:07.658Z,14.30
2022-10-20T02:37:38.248Z,14.40
2022-10-20T02:40:09.724Z,14.30
2022-10-20T02:42:40.937Z,14.30
2022-10-20T02:45:14.566Z,14.30
2022-10-20T02:47:44.994Z,14.30
2022-10-20T02:50:16.206Z,14.40
2022-10-20T02:52:46.519Z,14.30
2022-10-20T02:58:07.152Z,14.20
2022-10-20T03:00:40.237Z,14.30
2022-10-20T03:03:10.469Z,14.20
2022-10-20T03:05:44.620Z,14.20
2022-10-20T03:08:15.388Z,14.20
2022-10-20T03:10:45.973Z,14.20
2022-10-20T03:13:16.758Z,14.30
2022-10-20T03:15:49.607Z,14.20
2022-10-20T03:18:20.020Z,14.30
2022-10-20T03:20:53.061Z,14.30
2022-10-20T03:23:23.987Z,14.30
2022-10-20T03:25:54.270Z,14.20
2022-10-20T03:28:24.620Z,14.30
2022-10-20T03:30:57.598Z,14.30
2022-10-20T03:33:27.992Z,14.30
2022-10-20T03:35:58.417Z,14.30
2022-10-20T03:38:28.676Z,14.30
2022-10-20T03:40:59.150Z,14.30
2022-10-20T03:43:29.438Z,14.30
2022-10-20T03:46:09.281Z,14.30
2022-10-20T03:48:40.426Z,14.20
2022-10-20T03:51:11.336Z,14.20
2022-10-20T03:53:41.613Z,14.30
2022-10-20T03:56:12.858Z,14.30
2022-10-20T03:58:43.425Z,14.20
2022-10-20T04:01:18.313Z,14.30
2022-10-20T04:03:48.853Z,14.30
2022-10-20T04:06:19.252Z,14.20
2022-10-20T04:08:49.599Z,14.20
2022-10-20T04:11:19.931Z,14.20
2022-10-20T04:13:50.188Z,14.20
2022-10-20T04:16:23.116Z,14.20
2022-10-20T04:18:54.608Z,14.20
2022-10-20T04:21:26.483Z,14.20
2022-10-20T04:23:56.867Z,14.20
2022-10-20T04:26:27.164Z,14.10
2022-10-20T04:28:59.810Z,14.20
2022-10-20T04:31:32.675Z,14.10
2022-10-20T04:34:02.987Z,14.10
2022-10-20T04:36:33.221Z,14.10
2022-10-20T04:39:03.441Z,14.10
2022-10-20T04:41:33.668Z,14.00
2022-10-20T04:44:04.101Z,14.10
2022-10-20T04:46:36.939Z,14.10
2022-10-20T04:49:08.269Z,14.10
2022-10-20T04:51:39.149Z,14.00
2022-10-20T04:54:09.494Z,14.10
2022-10-20T04:56:39.830Z,14.10
2022-10-20T04:59:12.740Z,14.10
2022-10-20T05:01:46.740Z,14.10
2022-10-20T05:04:21.226Z,14.00
2022-10-20T05:06:52.199Z,14.00
2022-10-20T05:09:22.428Z,14.00
2022-10-20T05:11:53.572Z,14.00
2022-10-20T05:14:24.078Z,14.00
2022-10-20T05:16:57.009Z,14.00
2022-10-20T05:19:27.320Z,14.00
2022-10-20T05:21:57.669Z,14.00
2022-10-20T05:24:30.218Z,14.00
2022-10-20T05:27:00.693Z,14.00
2022-10-20T05:29:30.999Z,14.00
2022-10-20T05:32:03.913Z,14.00
2022-10-20T05:34:34.308Z,14.00
2022-10-20T05:37:04.573Z,14.00
2022-10-20T05:39:34.862Z,14.00
2022-10-20T05:42:05.464Z,14.10
2022-10-20T05:44:35.958Z,14.10
2022-10-20T05:47:08.819Z,14.10
2022-10-20T05:49:39.084Z,14.10
2022-10-20T05:52:09.524Z,14.20
2022-10-20T05:54:39.974Z,14.20
2022-10-20T05:57:10.181Z,14.20
2022-10-20T05:59:40.502Z,14.20
2022-10-20T06:02:13.757Z,14.20
2022-10-20T06:04:44.016Z,14.20
2022-10-20T06:07:14.282Z,14.20
2022-10-20T06:09:44.892Z,14.20
2022-10-20T06:12:15.151Z,14.20
2022-10-20T06:14:45.397Z,14.20
2022-10-20T06:17:18.253Z,14.30
2022-10-20T06:19:48.507Z,14.20
2022-10-20T06:22:18.814Z,14.20
2022-10-20T06:24:49.637Z,14.20
2022-10-20T06:27:20.044Z,14.30
2022-10-20T06:29:50.391Z,14.30
2022-10-20T06:32:23.320Z,14.30
2022-10-20T06:34:54.465Z,14.30
2022-10-20T06:37:24.738Z,14.30
2022-10-20T06:39:55.005Z,14.30
2022-10-20T06:42:25.297Z,14.30
2022-10-20T06:44:58.906Z,14.30
2022-10-20T06:47:33.296Z,14.30
2022-10-20T06:50:03.571Z,14.30
2022-10-20T06:52:34.105Z,14.30
2022-10-20T06:55:04.684Z,14.30
2022-10-20T06:57:35.205Z,14.30
2022-10-20T07:00:06.944Z,14.30
2022-10-20T07:02:41.561Z,14.30
2022-10-20T07:05:12.242Z,14.30
2022-10-20T07:07:42.593Z,14.30
2022-10-20T07:10:13.246Z,14.30
2022-10-20T07:12:43.659Z,14.40
2022-10-20T07:15:14.398Z,14.40
2022-10-20T07:17:49.064Z,14.40
2022-10-20T07:20:19.422Z,14.40
2022-10-20T07:22:49.766Z,14.40
2022-10-20T07:25:21.966Z,14.40
2022-10-20T07:27:52.223Z,14.40
2022-10-20T07:30:22.613Z,14.40
2022-10-20T07:32:55.526Z,14.40
2022-10-20T07:35:25.894Z,14.40
2022-10-20T07:37:56.198Z,14.40
2022-10-20T07:40:26.553Z,14.50
2022-10-20T07:42:57.227Z,14.50
2022-10-20T07:45:27.802Z,14.50
2022-10-20T07:48:00.887Z,14.50
2022-10-20T07:50:31.310Z,14.60
2022-10-20T07:53:01.733Z,14.60
2022-10-20T07:55:38.605Z,14.60
2022-10-20T07:58:09.768Z,14.70
2022-10-20T08:03:32.979Z,14.70
2022-10-20T08:06:03.280Z,14.70
2022-10-20T08:08:33.984Z,14.80
2022-10-20T08:11:04.695Z,14.80
2022-10-20T08:13:35.202Z,14.80
2022-10-20T08:16:05.900Z,14.80
2022-10-20T08:21:25.710Z,14.90
2022-10-20T08:23:56.204Z,14.90
2022-10-20T08:26:28.030Z,15.00
2022-10-20T08:28:58.739Z,15.00
2022-10-20T08:31:29.280Z,15.00
2022-10-20T08:34:02.603Z,15.00
2022-10-20T08:36:33.049Z,15.00
2022-10-20T08:39:06.138Z,15.00
2022-10-20T08:42:06.466Z,15.00
2022-10-20T08:44:34.520Z,15.10
2022-10-20T08:47:07.144Z,15.00
2022-10-20T08:49:40.220Z,15.10
2022-10-20T08:52:16.940Z,15.10
2022-10-20T08:54:48.512Z,15.10
2022-10-20T08:57:25.728Z,15.10
2022-10-20T08:59:57.583Z,15.20
2022-10-20T09:02:38.013Z,15.20
2022-10-20T09:05:16.736Z,15.20
2022-10-20T09:07:51.702Z,15.20
2022-10-20T09:10:29.956Z,15.20
2022-10-20T09:13:01.323Z,15.20
2022-10-20T09:15:32.524Z,15.20
2022-10-20T09:18:04.912Z,15.20
2022-10-20T09:20:45.335Z,15.20
2022-10-20T09:23:39.542Z,15.20
2022-10-20T09:26:24.760Z,15.20
2022-10-20T09:29:15.830Z,15.20
2022-10-20T09:31:47.924Z,15.20
2022-10-20T09:34:29.074Z,15.20
2022-10-20T09:37:07.064Z,15.20
2022-10-20T09:39:55.145Z,15.20
2022-10-20T09:42:28.381Z,15.20
2022-10-20T09:45:02.783Z,15.30
2022-10-20T09:47:33.696Z,15.30
2022-10-20T09:50:05.947Z,15.30
2022-10-20T09:52:47.879Z,15.30
2022-10-20T09:55:31.139Z,15.30
2022-10-20T09:58:04.144Z,15.40
2022-10-20T10:00:37.900Z,15.30
2022-10-20T10:03:21.177Z,15.30
2022-10-20T10:05:54.479Z,15.40
2022-10-20T10:08:30.744Z,15.40
2022-10-20T10:11:06.364Z,15.50
2022-10-20T10:13:44.539Z,15.50
2022-10-20T10:16:17.754Z,15.50
2022-10-20T10:18:57.707Z,15.60
2022-10-20T10:21:28.413Z,15.70
2022-10-20T10:24:04.029Z,15.70
2022-10-20T10:26:46.934Z,15.70
2022-10-20T10:29:22.832Z,15.80
2022-10-20T10:31:58.871Z,15.80
2022-10-20T10:34:47.954Z,15.90
2022-10-20T10:39:54.091Z,16.00
2022-10-20T10:42:53.511Z,16.00
2022-10-20T10:45:40.922Z,16.10
2022-10-20T10:48:48.243Z,16.10
2022-10-20T10:51:26.733Z,16.10
2022-10-20T10:54:11.774Z,16.20
2022-10-20T10:56:49.020Z,16.30
2022-10-20T10:59:25.286Z,16.40
2022-10-20T11:02:35.439Z,16.50
2022-10-20T11:05:36.558Z,16.50
2022-10-20T11:08:17.214Z,16.60
2022-10-20T11:10:54.839Z,16.60
2022-10-20T11:13:35.541Z,16.60
2022-10-20T11:16:18.952Z,16.70
2022-10-20T11:19:08.161Z,16.80
2022-10-20T11:21:47.801Z,16.80
2022-10-20T11:24:32.990Z,16.80
2022-10-20T11:27:10.786Z,16.80
2022-10-20T11:29:45.929Z,16.80
2022-10-20T11:32:25.762Z,16.80
2022-10-20T11:35:06.530Z,16.90
2022-10-20T11:37:44.760Z,16.90
2022-10-20T11:40:25.390Z,17.00
2022-10-20T11:43:02.206Z,17.10
2022-10-20T11:45:42.351Z,17.10
2022-10-20T11:48:20.181Z,17.10
2022-10-20T11:51:00.705Z,17.20
2022-10-20T11:53:52.183Z,17.20
2022-10-20T11:56:38.223Z,17.20
2022-10-20T11:59:26.552Z,17.40
2022-10-20T12:02:45.549Z,17.50
2022-10-20T12:05:32.924Z,17.50
2022-10-20T12:08:30.531Z,17.50
2022-10-20T12:11:09.002Z,17.50
2022-10-20T12:13:51.098Z,17.50
2022-10-20T12:16:51.152Z,17.60
2022-10-20T12:19:25.662Z,17.60
2022-10-20T12:22:00.179Z,17.60
2022-10-20T12:24:37.784Z,17.70
2022-10-20T12:27:30.564Z,17.80
2022-10-20T12:30:06.757Z,18.10
2022-10-20T12:32:55.386Z,18.10
2022-10-20T12:36:03.619Z,18.30
2022-10-20T12:38:35.374Z,18.40
2022-10-20T12:41:06.802Z,18.40
2022-10-20T12:43:52.062Z,18.30
2022-10-20T12:46:25.388Z,18.40
2022-10-20T12:49:00.364Z,18.40
2022-10-20T12:51:51.510Z,18.50
2022-10-20T12:54:27.541Z,18.50
2022-10-20T12:57:02.061Z,18.40
2022-10-20T12:59:42.186Z,18.60
2022-10-20T13:02:57.175Z,18.60
2022-10-20T13:05:47.144Z,18.80
2022-10-20T13:08:38.560Z,18.90
2022-10-20T13:11:38.085Z,19.00
2022-10-20T13:14:40.689Z,19.10
2022-10-20T13:17:23.176Z,19.10
2022-10-20T13:20:01.374Z,19.20
2022-10-20T13:22:43.621Z,19.20
2022-10-20T13:25:29.259Z,19.20
2022-10-20T13:28:14.908Z,19.30
2022-10-20T13:31:08.902Z,19.20
2022-10-20T13:34:03.072Z,19.30
2022-10-20T13:36:58.531Z,19.30
2022-10-20T13:39:38.081Z,19.30
2022-10-20T13:42:21.715Z,19.30
2022-10-20T13:45:02.153Z,19.30
2022-10-20T13:47:52.004Z,19.30
2022-10-20T13:50:26.605Z,19.30
2022-10-20T13:53:00.081Z,19.50
2022-10-20T13:55:33.300Z,19.50
2022-10-20T13:58:10.399Z,19.60
2022-10-20T14:00:40.765Z,19.60
2022-10-20T14:03:20.727Z,19.60
2022-10-20T14:05:51.147Z,19.60
2022-10-20T14:08:23.591Z,19.60
2022-10-20T14:10:57.574Z,19.60
2022-10-20T14:13:34.639Z,19.60
2022-10-20T14:16:12.342Z,19.60
2022-10-20T14:18:42.770Z,19.60
2022-10-20T14:21:20.239Z,19.60
2022-10-20T14:23:52.990Z,19.60
2022-10-20T14:26:28.106Z,19.60
2022-10-20T14:29:01.664Z,19.60
2022-10-20T14:31:32.186Z,19.60
2022-10-20T14:34:02.587Z,19.60
2022-10-20T14:36:34.006Z,19.60
2022-10-20T14:39:04.661Z,19.60
2022-10-20T14:41:37.036Z,19.60
2022-10-20T14:44:22.499Z,19.60
2022-10-20T14:47:05.393Z,19.60
2022-10-20T14:49:39.540Z,19.60
2022-10-20T14:52:23.497Z,19.70
2022-10-20T14:54:54.513Z,19.70
2022-10-20T14:57:47.381Z,19.70
2022-10-20T15:00:32.840Z,19.70
2022-10-20T15:03:07.150Z,19.60
2022-10-20T15:05:41.335Z,19.60
2022-10-20T15:08:23.900Z,19.60
2022-10-20T15:10:54.404Z,19.70
2022-10-20T15:13:30.323Z,19.70
2022-10-20T15:16:04.983Z,19.70
2022-10-20T15:18:39.982Z,19.80
2022-10-20T15:21:12.094Z,19.70
2022-10-20T15:23:42.543Z,19.70
2022-10-20T15:26:15.821Z,19.70
2022-10-20T15:28:48.883Z,19.60
2022-10-20T15:31:24.319Z,19.60
2022-10-20T15:33:55.523Z,19.60
2022-10-20T15:36:29.381Z,19.60
2022-10-20T15:39:00.003Z,19.60
2022-10-20T15:41:32.378Z,19.50
2022-10-20T15:44:08.092Z,19.50
2022-10-20T15:46:41.079Z,19.50
2022-10-20T15:49:11.594Z,19.40
2022-10-20T15:51:44.279Z,19.50
2022-10-20T15:54:17.018Z,19.50
2022-10-20T15:56:47.398Z,19.50
2022-10-20T15:59:17.847Z,19.50
2022-10-20T16:01:50.758Z,19.40
2022-10-20T16:04:23.399Z,19.40
2022-10-20T16:06:57.837Z,19.40
2022-10-20T16:09:30.754Z,19.40
2022-10-20T16:12:01.037Z,19.40
2022-10-20T16:14:31.321Z,19.40
2022-10-20T16:17:04.217Z,19.30
2022-10-20T16:19:34.501Z,19.30
2022-10-20T16:22:04.917Z,19.30
2022-10-20T16:24:35.342Z,19.20
2022-10-20T16:27:06.811Z,19.20
2022-10-20T16:29:37.245Z,19.20
2022-10-20T16:32:10.284Z,19.20
2022-10-20T16:34:40.523Z,19.10
2022-10-20T16:37:10.845Z,19.10
2022-10-20T16:39:41.157Z,19.10
2022-10-20T16:42:11.882Z,19.10
2022-10-20T16:44:42.119Z,19.00
2022-10-20T16:47:14.972Z,19.00
2022-10-20T16:49:45.237Z,19.10
2022-10-20T16:52:15.553Z,19.00
2022-10-20T16:54:45.858Z,19.00
2022-10-20T16:57:16.434Z,19.00
2022-10-20T16:59:50.119Z,19.00
2022-10-20T17:02:23.406Z,19.00
2022-10-20T17:04:54.012Z,19.00
2022-10-20T17:07:24.275Z,19.00
2022-10-20T17:09:54.555Z,19.00
2022-10-20T17:12:24.897Z,19.00
2022-10-20T17:14:55.122Z,19.00
2022-10-20T17:17:28.178Z,18.90
2022-10-20T17:19:58.587Z,19.00
2022-10-20T17:22:28.987Z,18.90
2022-10-20T17:24:59.337Z,18.90
2022-10-20T17:27:29.717Z,18.90
2022-10-20T17:30:00.066Z,18.90
2022-10-20T17:32:32.946Z,18.90
2022-10-20T17:35:03.224Z,18.90
2022-10-20T17:37:34.385Z,18.90
2022-10-20T17:40:04.702Z,18.90
2022-10-20T17:42:36.202Z,18.90
2022-10-20T17:45:07.179Z,18.90
2022-10-20T17:47:40.035Z,18.90
2022-10-20T17:50:11.085Z,18.90
2022-10-20T17:52:41.611Z,18.90
2022-10-20T17:55:12.402Z,18.90
2022-10-20T17:57:42.721Z,18.90
2022-10-20T18:00:22.951Z,18.80
2022-10-20T18:03:06.652Z,18.90
2022-10-20T18:05:40.574Z,18.90
2022-10-20T18:08:13.311Z,18.80
2022-10-20T18:10:47.268Z,18.90
2022-10-20T18:13:20.203Z,18.90
2022-10-20T18:15:52.952Z,18.90
2022-10-20T18:18:28.951Z,18.90
2022-10-20T18:21:02.913Z,18.90
2022-10-20T18:23:37.018Z,18.90
2022-10-20T18:26:11.756Z,18.90
2022-10-20T18:28:45.832Z,18.90
2022-10-20T18:31:23.248Z,18.90
2022-10-20T18:34:05.805Z,18.90
2022-10-20T18:36:41.968Z,18.90
2022-10-20T18:39:17.661Z,18.90
2022-10-20T18:41:48.767Z,18.80
2022-10-20T18:44:21.365Z,18.80
2022-10-20T18:46:58.006Z,18.80
2022-10-20T18:49:32.133Z,18.80
2022-10-20T18:52:03.199Z,18.80
2022-10-20T18:54:35.035Z,18.80
2022-10-20T18:57:05.673Z,18.80
2022-10-20T18:59:36.017Z,18.80
2022-10-20T19:04:52.876Z,18.70
2022-10-20T19:07:25.989Z,18.80
2022-10-20T19:09:57.404Z,18.80
2022-10-20T19:12:28.122Z,18.80
2022-10-20T19:15:10.373Z,18.80
2022-10-20T19:17:50.279Z,18.80
2022-10-20T19:20:24.889Z,18.70
2022-10-20T19:22:56.338Z,18.80
2022-10-20T19:25:27.506Z,18.70
2022-10-20T19:27:58.339Z,18.70
2022-10-20T19:30:35.418Z,18.70
2022-10-20T19:33:08.428Z,18.70
2022-10-20T19:35:43.443Z,18.60
2022-10-20T19:38:14.355Z,18.70
2022-10-20T19:40:44.821Z,18.70
2022-10-20T19:43:15.389Z,18.70
2022-10-20T19:45:49.162Z,18.70
2022-10-20T19:48:21.228Z,18.70
2022-10-20T19:50:55.356Z,18.60
2022-10-20T19:53:29.933Z,18.70
2022-10-20T19:56:00.858Z,18.60
2022-10-20T19:58:31.973Z,18.70
2022-10-20T20:01:03.150Z,18.70
2022-10-20T20:03:34.659Z,18.70
2022-10-20T20:06:09.530Z,18.70
2022-10-20T20:08:42.436Z,18.70
2022-10-20T20:11:23.135Z,18.70
2022-10-20T20:13:53.664Z,18.60
2022-10-20T20:16:28.166Z,18.70
2022-10-20T20:18:58.540Z,18.70
2022-10-20T20:21:33.323Z,18.70
2022-10-20T20:24:06.366Z,18.70
2022-10-20T20:26:39.874Z,18.70
2022-10-20T20:29:10.351Z,18.70
2022-10-20T20:31:43.201Z,18.70
2022-10-20T20:34:13.999Z,18.70
2022-10-20T20:36:47.092Z,18.70
2022-10-20T20:39:17.384Z,18.70
2022-10-20T20:41:47.775Z,18.60
2022-10-20T20:44:18.512Z,18.60
2022-10-20T20:46:48.994Z,18.70
2022-10-20T20:49:19.366Z,18.60
2022-10-20T20:51:52.239Z,18.70
2022-10-20T20:54:22.638Z,18.60
2022-10-20T20:56:52.949Z,18.60
2022-10-20T20:59:23.247Z,18.60
2022-10-20T21:01:53.508Z,18.70
2022-10-20T21:04:25.824Z,18.70
2022-10-20T21:07:02.682Z,18.70
2022-10-20T21:09:33.647Z,18.70
2022-10-20T21:12:04.047Z,18.70
2022-10-20T21:14:34.428Z,18.70
2022-10-20T21:17:04.729Z,18.70
2022-10-20T21:19:35.910Z,18.60
2022-10-20T21:22:08.814Z,18.70
2022-10-20T21:24:39.143Z,18.70
2022-10-20T21:27:09.669Z,18.70
2022-10-20T21:29:44.130Z,18.60
2022-10-20T21:32:18.629Z,18.70
2022-10-20T21:34:48.844Z,18.70
2022-10-20T21:37:21.785Z,18.70
2022-10-20T21:39:52.148Z,18.70
2022-10-20T21:42:22.337Z,18.70
2022-10-20T21:44:52.924Z,18.70
2022-10-20T21:47:23.253Z,18.70
2022-10-20T21:49:53.557Z,18.70
2022-10-20T21:52:26.468Z,18.70
2022-10-20T21:54:56.747Z,18.70
2022-10-20T21:57:27.035Z,18.70
2022-10-20T21:59:57.360Z,18.60
2022-10-20T22:02:27.601Z,18.60
2022-10-20T22:04:57.804Z,18.60
2022-10-20T22:07:31.523Z,18.60
2022-10-20T22:10:01.787Z,18.60
2022-10-20T22:12:32.055Z,18.60
2022-10-20T22:15:02.310Z,18.60
2022-10-20T22:17:32.878Z,18.60
2022-10-20T22:20:03.050Z,18.60
2022-10-20T22:22:36.152Z,18.60
2022-10-20T22:25:06.945Z,18.60
2022-10-20T22:27:42.963Z,18.60
2022-10-20T22:30:14.506Z,18.60
2022-10-20T22:32:44.728Z,18.60
2022-10-20T22:35:15.066Z,18.60
2022-10-20T22:37:47.962Z,18.50
2022-10-20T22:40:18.316Z,18.50
2022-10-20T22:42:48.550Z,18.60
2022-10-20T22:45:19.077Z,18.50
2022-10-20T22:47:49.376Z,18.50
2022-10-20T22:50:19.812Z,18.50
2022-10-20T22:52:53.248Z,18.50
2022-10-20T22:55:23.588Z,18.50
2022-10-20T22:57:54.972Z,18.50
2022-10-20T23:00:25.255Z,18.50
2022-10-20T23:02:55.536Z,18.50
2022-10-20T23:05:26.138Z,18.50
2022-10-20T23:07:58.991Z,18.50
2022-10-20T23:10:29.323Z,18.50
2022-10-20T23:12:59.660Z,18.50
2022-10-20T23:15:30.304Z,18.50
2022-10-20T23:18:00.561Z,18.40
2022-10-20T23:20:30.806Z,18.40
2022-10-20T23:23:03.645Z,18.40
2022-10-20T23:28:24.138Z,18.40
2022-10-20T23:30:54.575Z,18.30
2022-10-20T23:33:24.938Z,18.30
2022-10-20T23:35:55.186Z,18.30
2022-10-20T23:38:28.186Z,18.30
2022-10-20T23:40:58.343Z,18.20
2022-10-20T23:43:28.780Z,18.30
2022-10-20T23:45:59.211Z,18.30
2022-10-20T23:48:29.647Z,18.20
2022-10-20T23:50:59.915Z,18.20
2022-10-20T23:53:32.793Z,18.10
2022-10-20T23:56:03.219Z,18.10
2022-10-20T23:58:33.472Z,18.10
